createdAt,value
2022-09-12T00:01:16.286Z,86.84
2022-09-12T00:03:43.907Z,87.20
2022-09-12T00:06:17.157Z,87.38
2022-09-12T00:08:46.982Z,87.32
2022-09-12T00:11:14.678Z,87.31
2022-09-12T00:13:43.544Z,87.43
2022-09-12T00:16:22.337Z,87.46
2022-09-12T00:18:50.113Z,87.77
2022-09-12T00:21:19.214Z,87.52
2022-09-12T00:23:46.937Z,87.77
2022-09-12T00:26:19.564Z,87.91
2022-09-12T00:28:49.996Z,87.98
2022-09-12T00:31:21.098Z,87.98
2022-09-12T00:33:58.633Z,88.36
2022-09-12T00:36:27.885Z,88.43
2022-09-12T00:38:55.003Z,88.18
2022-09-12T00:41:27.343Z,88.37
2022-09-12T00:43:59.546Z,88.96
2022-09-12T00:46:37.695Z,88.53
2022-09-12T00:49:05.665Z,88.52
2022-09-12T00:51:36.499Z,88.36
2022-09-12T00:54:09.225Z,88.38
2022-09-12T00:56:37.304Z,88.50
2022-09-12T00:59:13.947Z,88.78
2022-09-12T01:01:46.834Z,88.43
2022-09-12T01:04:20.345Z,88.59
2022-09-12T01:06:48.994Z,88.79
2022-09-12T01:09:19.045Z,88.88
2022-09-12T01:11:48.835Z,88.82
2022-09-12T01:14:18.079Z,88.83
2022-09-12T01:16:47.374Z,88.65
2022-09-12T01:19:25.635Z,89.51
2022-09-12T01:22:13.499Z,89.67
2022-09-12T01:24:54.456Z,89.49
2022-09-12T01:27:31.194Z,89.71
2022-09-12T01:30:18.340Z,89.71
2022-09-12T01:33:15.139Z,90.07
2022-09-12T01:36:02.255Z,89.97
2022-09-12T01:38:34.862Z,89.70
2022-09-12T01:41:14.316Z,89.80
2022-09-12T01:43:58.947Z,89.38
2022-09-12T01:46:36.028Z,89.34
2022-09-12T01:49:12.833Z,89.49
2022-09-12T01:51:45.375Z,90.19
2022-09-12T01:54:21.175Z,89.87
2022-09-12T01:56:53.054Z,89.99
2022-09-12T01:59:33.785Z,89.98
2022-09-12T02:02:07.595Z,89.95
2022-09-12T02:04:44.962Z,90.26
2022-09-12T02:09:53.247Z,90.45
2022-09-12T02:12:30.766Z,89.87
2022-09-12T02:15:04.085Z,89.61
2022-09-12T02:20:14.619Z,90.63
2022-09-12T02:22:49.076Z,90.34
2022-09-12T02:25:18.433Z,90.18
2022-09-12T02:27:50.925Z,90.20
2022-09-12T02:30:19.927Z,90.49
2022-09-12T02:35:27.296Z,90.34
2022-09-12T02:37:59.215Z,90.30
2022-09-12T02:40:26.966Z,90.73
2022-09-12T02:42:54.141Z,90.55
2022-09-12T02:45:21.727Z,90.58
2022-09-12T02:47:57.996Z,90.63
2022-09-12T02:50:25.526Z,90.50
2022-09-12T02:52:55.960Z,90.18
2022-09-12T02:55:25.305Z,90.15
2022-09-12T02:57:52.460Z,90.39
2022-09-12T03:00:20.093Z,89.94
2022-09-12T03:02:48.923Z,90.03
2022-09-12T03:05:21.898Z,90.37
2022-09-12T03:08:09.951Z,90.59
2022-09-12T03:10:48.537Z,90.51
2022-09-12T03:13:24.963Z,90.76
2022-09-12T03:15:52.716Z,90.45
2022-09-12T03:18:29.759Z,91.13
2022-09-12T03:21:09.904Z,91.31
2022-09-12T03:26:33.106Z,91.37
2022-09-12T03:29:01.144Z,91.63
2022-09-12T03:31:28.194Z,91.56
2022-09-12T03:33:55.447Z,91.45
2022-09-12T03:36:24.771Z,91.63
2022-09-12T03:38:52.904Z,91.45
2022-09-12T03:43:48.724Z,91.42
2022-09-12T03:46:15.930Z,91.48
2022-09-12T03:48:43.360Z,91.67
2022-09-12T03:51:11.471Z,91.24
2022-09-12T03:53:38.576Z,91.43
2022-09-12T03:56:08.610Z,90.97
2022-09-12T03:58:36.676Z,90.36
2022-09-12T04:01:14.751Z,90.37
2022-09-12T04:03:43.951Z,90.51
2022-09-12T04:06:13.502Z,90.42
2022-09-12T04:08:41.680Z,90.19
2022-09-12T04:11:13.195Z,90.71
2022-09-12T04:13:42.734Z,89.81
2022-09-12T04:16:11.697Z,89.93
2022-09-12T04:18:39.124Z,90.13
2022-09-12T04:23:35.886Z,90.49
2022-09-12T04:26:07.036Z,90.26
2022-09-12T04:28:35.771Z,90.46
2022-09-12T04:31:07.746Z,90.73
2022-09-12T04:33:36.391Z,90.50
2022-09-12T04:36:06.118Z,90.67
2022-09-12T04:38:34.026Z,90.65
2022-09-12T04:41:01.563Z,91.21
2022-09-12T04:43:28.730Z,91.29
2022-09-12T04:45:55.972Z,91.50
2022-09-12T04:48:23.441Z,91.97
2022-09-12T04:50:51.003Z,91.68
2022-09-12T04:53:18.370Z,91.50
2022-09-12T04:58:11.516Z,90.75
2022-09-12T05:00:38.927Z,91.20
2022-09-12T05:03:06.535Z,90.95
2022-09-12T05:07:59.615Z,91.04
2022-09-12T05:10:28.797Z,90.84
2022-09-12T05:12:55.945Z,90.84
2022-09-12T05:15:23.049Z,91.05
2022-09-12T05:20:17.990Z,90.88
2022-09-12T05:22:45.297Z,91.29
2022-09-12T05:25:12.803Z,91.58
2022-09-12T05:27:40.225Z,91.25
2022-09-12T05:32:35.851Z,91.13
2022-09-12T05:35:03.165Z,91.01
2022-09-12T05:37:30.598Z,91.32
2022-09-12T05:39:57.803Z,91.94
2022-09-12T05:42:25.016Z,91.99
2022-09-12T05:44:52.118Z,92.01
2022-09-12T05:47:19.600Z,92.05
2022-09-12T05:49:48.311Z,91.95
2022-09-12T05:52:15.630Z,92.17
2022-09-12T05:54:42.791Z,92.18
2022-09-12T05:57:09.686Z,92.24
2022-09-12T05:59:37.339Z,92.65
2022-09-12T06:02:04.748Z,92.65
2022-09-12T06:04:32.106Z,92.66
2022-09-12T06:11:53.673Z,92.40
2022-09-12T06:14:21.042Z,92.73
2022-09-12T06:16:48.928Z,92.69
2022-09-12T06:19:19.565Z,92.58
2022-09-12T06:21:47.817Z,92.32
2022-09-12T06:24:14.915Z,93.04
2022-09-12T06:26:42.208Z,92.79
2022-09-12T06:29:12.025Z,92.66
2022-09-12T06:31:41.625Z,92.66
2022-09-12T06:34:12.501Z,92.86
2022-09-12T06:36:43.525Z,92.60
2022-09-12T06:39:13.793Z,92.39
2022-09-12T06:41:43.968Z,92.21
2022-09-12T06:44:16.394Z,92.49
2022-09-12T06:46:44.115Z,92.06
2022-09-12T06:49:11.695Z,92.17
2022-09-12T06:51:38.904Z,92.35
2022-09-12T06:56:33.004Z,91.99
2022-09-12T06:59:00.550Z,92.28
2022-09-12T07:01:31.446Z,91.89
2022-09-12T07:04:01.248Z,91.50
2022-09-12T07:06:32.571Z,91.87
2022-09-12T07:09:01.471Z,90.98
2022-09-12T07:11:32.208Z,91.13
2022-09-12T07:14:02.556Z,91.15
2022-09-12T07:16:30.556Z,91.62
2022-09-12T07:19:01.309Z,91.35
2022-09-12T07:23:58.415Z,91.24
2022-09-12T07:26:29.180Z,91.44
2022-09-12T07:29:18.753Z,91.46
2022-09-12T07:31:45.655Z,91.12
2022-09-12T07:34:13.344Z,91.23
2022-09-12T07:36:40.532Z,91.39
2022-09-12T07:39:07.589Z,91.23
2022-09-12T07:41:47.643Z,91.35
2022-09-12T07:44:14.435Z,90.98
2022-09-12T07:46:41.465Z,91.40
2022-09-12T07:49:08.528Z,90.79
2022-09-12T07:51:35.522Z,91.21
2022-09-12T07:54:02.908Z,90.82
2022-09-12T07:56:32.710Z,90.56
2022-09-12T07:59:01.567Z,90.80
2022-09-12T08:01:28.494Z,91.14
2022-09-12T08:03:57.563Z,91.01
2022-09-12T08:06:26.229Z,90.95
2022-09-12T08:08:55.589Z,90.38
2022-09-12T08:11:24.182Z,90.47
2022-09-12T08:13:55.292Z,90.50
2022-09-12T08:16:24.771Z,90.34
2022-09-12T08:19:02.717Z,90.08
2022-09-12T08:21:48.661Z,89.99
2022-09-12T08:24:16.022Z,89.95
2022-09-12T08:26:44.022Z,89.58
2022-09-12T08:29:11.503Z,89.58
2022-09-12T08:31:39.022Z,89.18
2022-09-12T08:34:06.755Z,88.96
2022-09-12T08:36:34.549Z,89.41
2022-09-12T08:39:08.737Z,88.58
2022-09-12T08:41:43.237Z,87.98
2022-09-12T08:44:28.757Z,87.97
2022-09-12T08:47:22.238Z,87.46
2022-09-12T08:49:57.300Z,86.72
2022-09-12T08:52:34.199Z,86.27
2022-09-12T08:55:03.137Z,86.46
2022-09-12T08:57:43.782Z,86.60
2022-09-12T09:00:14.297Z,85.62
2022-09-12T09:03:09.196Z,85.28
2022-09-12T09:05:45.443Z,86.83
2022-09-12T09:09:00.491Z,92.69
2022-09-12T09:11:42.456Z,92.47
2022-09-12T09:14:38.123Z,89.85
2022-09-12T09:17:13.181Z,87.19
2022-09-12T09:19:50.958Z,85.76
2022-09-12T09:22:42.531Z,85.03
2022-09-12T09:25:24.437Z,85.35
2022-09-12T09:28:25.869Z,84.56
2022-09-12T09:30:53.143Z,83.44
2022-09-12T09:33:26.952Z,84.08
2022-09-12T09:36:17.271Z,84.41
2022-09-12T09:38:47.052Z,82.57
2022-09-12T09:41:45.786Z,82.08
2022-09-12T09:44:16.482Z,83.08
2022-09-12T09:46:43.770Z,83.28
2022-09-12T09:49:14.804Z,82.99
2022-09-12T09:51:43.233Z,82.18
2022-09-12T09:54:24.437Z,82.33
2022-09-12T09:56:51.453Z,82.81
2022-09-12T09:59:32.127Z,82.72
2022-09-12T10:02:04.138Z,81.54
2022-09-12T10:04:41.250Z,81.41
2022-09-12T10:07:22.176Z,81.44
2022-09-12T10:10:13.673Z,80.71
2022-09-12T10:12:41.477Z,80.84
2022-09-12T10:15:25.953Z,79.38
2022-09-12T10:17:55.755Z,79.24
2022-09-12T10:23:35.424Z,78.41
2022-09-12T10:26:05.436Z,78.17
2022-09-12T10:28:38.736Z,78.70
2022-09-12T10:31:08.164Z,78.13
2022-09-12T10:33:54.339Z,77.74
2022-09-12T10:36:22.379Z,77.41
2022-09-12T10:38:55.160Z,76.31
2022-09-12T10:41:24.229Z,76.20
2022-09-12T10:43:51.433Z,75.87
2022-09-12T10:46:18.769Z,75.87
2022-09-12T10:48:48.618Z,75.70
2022-09-12T10:51:28.735Z,75.75
2022-09-12T10:54:00.251Z,75.67
2022-09-12T10:56:54.245Z,74.90
2022-09-12T10:59:36.632Z,74.97
2022-09-12T11:02:24.355Z,74.25
2022-09-12T11:05:22.549Z,74.25
2022-09-12T11:08:01.010Z,74.25
2022-09-12T11:10:49.473Z,74.95
2022-09-12T11:13:49.226Z,75.05
2022-09-12T11:16:44.671Z,73.56
2022-09-12T11:19:31.593Z,72.89
2022-09-12T11:22:22.236Z,72.50
2022-09-12T11:25:30.411Z,69.89
2022-09-12T11:28:21.393Z,69.58
2022-09-12T11:31:15.882Z,68.86
2022-09-12T11:33:45.756Z,68.19
2022-09-12T11:36:54.618Z,67.13
2022-09-12T11:39:32.579Z,66.96
2022-09-12T11:42:02.964Z,66.55
2022-09-12T11:44:47.947Z,66.40
2022-09-12T11:47:15.609Z,66.23
2022-09-12T11:49:52.746Z,65.96
2022-09-12T11:52:24.703Z,66.97
2022-09-12T11:55:07.453Z,67.19
2022-09-12T11:57:44.403Z,66.77
2022-09-12T12:00:27.096Z,67.82
2022-09-12T12:03:12.887Z,66.84
2022-09-12T12:05:55.850Z,66.83
2022-09-12T12:08:24.443Z,66.10
2022-09-12T12:10:58.802Z,66.37
2022-09-12T12:13:39.562Z,67.22
2022-09-12T12:16:17.460Z,66.27
2022-09-12T12:18:44.981Z,65.40
2022-09-12T12:21:31.654Z,66.01
2022-09-12T12:24:15.888Z,66.03
2022-09-12T12:26:57.629Z,65.83
2022-09-12T12:29:43.630Z,65.65
2022-09-12T12:32:10.943Z,66.60
2022-09-12T12:34:37.858Z,66.58
2022-09-12T12:37:19.858Z,65.78
2022-09-12T12:39:50.733Z,65.95
2022-09-12T12:42:35.916Z,65.32
2022-09-12T12:45:09.639Z,65.96
2022-09-12T12:47:49.083Z,64.94
2022-09-12T12:50:21.496Z,65.22
2022-09-12T12:52:54.382Z,65.35
2022-09-12T12:55:21.246Z,65.64
2022-09-12T12:57:59.413Z,66.07
2022-09-12T13:00:26.751Z,65.53
2022-09-12T13:03:18.555Z,65.26
2022-09-12T13:05:51.754Z,65.64
2022-09-12T13:08:19.066Z,65.79
2022-09-12T13:10:59.848Z,65.87
2022-09-12T13:13:41.118Z,66.10
2022-09-12T13:16:10.891Z,65.59
2022-09-12T13:18:48.657Z,66.15
2022-09-12T13:21:20.917Z,65.76
2022-09-12T13:24:16.117Z,64.96
2022-09-12T13:26:50.509Z,65.65
2022-09-12T13:29:26.281Z,65.49
2022-09-12T13:31:59.474Z,64.55
2022-09-12T13:34:34.467Z,64.03
2022-09-12T13:37:40.814Z,62.99
2022-09-12T13:40:46.107Z,61.69
2022-09-12T13:43:15.862Z,61.81
2022-09-12T13:45:46.426Z,61.36
2022-09-12T13:48:23.926Z,60.81
2022-09-12T13:50:57.815Z,60.91
2022-09-12T13:53:28.944Z,60.41
2022-09-12T13:55:58.872Z,61.04
2022-09-12T13:58:31.398Z,62.43
2022-09-12T14:01:12.207Z,61.19
2022-09-12T14:04:07.763Z,60.83
2022-09-12T14:06:46.827Z,60.58
2022-09-12T14:09:29.692Z,60.88
2022-09-12T14:11:58.327Z,60.82
2022-09-12T14:14:37.695Z,61.04
2022-09-12T14:17:25.638Z,61.43
2022-09-12T14:19:53.208Z,61.05
2022-09-12T14:22:20.697Z,59.58
2022-09-12T14:24:51.938Z,58.19
2022-09-12T14:30:26.581Z,59.27
2022-09-12T14:33:12.777Z,60.15
2022-09-12T14:35:43.865Z,60.24
2022-09-12T14:38:16.816Z,60.63
2022-09-12T14:40:48.866Z,60.04
2022-09-12T14:43:44.763Z,59.78
2022-09-12T14:46:24.954Z,59.69
2022-09-12T14:49:06.389Z,58.66
2022-09-12T14:51:38.537Z,59.05
2022-09-12T14:54:05.657Z,57.65
2022-09-12T14:56:41.822Z,56.90
2022-09-12T14:59:28.899Z,57.25
2022-09-12T15:02:17.400Z,57.17
2022-09-12T15:04:48.259Z,57.50
2022-09-12T15:07:48.294Z,57.23
2022-09-12T15:10:24.325Z,57.44
2022-09-12T15:13:04.912Z,56.67
2022-09-12T15:15:33.114Z,56.74
2022-09-12T15:18:03.391Z,56.93
2022-09-12T15:20:38.196Z,57.50
2022-09-12T15:23:09.570Z,57.15
2022-09-12T15:25:37.307Z,58.01
2022-09-12T15:28:17.889Z,56.90
2022-09-12T15:30:47.044Z,56.73
2022-09-12T15:33:15.219Z,57.23
2022-09-12T15:35:43.102Z,58.15
2022-09-12T15:38:14.231Z,57.72
2022-09-12T15:40:42.467Z,58.66
2022-09-12T15:43:14.109Z,58.44
2022-09-12T15:45:44.247Z,59.12
2022-09-12T15:48:11.097Z,59.28
2022-09-12T15:50:39.079Z,59.73
2022-09-12T15:53:06.822Z,59.87
2022-09-12T15:55:34.540Z,59.54
2022-09-12T15:58:06.844Z,60.21
2022-09-12T16:00:37.555Z,60.38
2022-09-12T16:03:05.533Z,60.73
2022-09-12T16:05:33.691Z,61.56
2022-09-12T16:08:01.187Z,61.43
2022-09-12T16:10:31.070Z,61.13
2022-09-12T16:12:59.388Z,61.50
2022-09-12T16:15:27.144Z,60.69
2022-09-12T16:17:54.974Z,61.66
2022-09-12T16:20:23.943Z,61.51
2022-09-12T16:22:51.990Z,60.63
2022-09-12T16:25:19.735Z,61.50
2022-09-12T16:27:48.258Z,61.15
2022-09-12T16:30:15.987Z,61.15
2022-09-12T16:32:43.568Z,61.46
2022-09-12T16:35:11.685Z,62.26
2022-09-12T16:37:39.556Z,62.40
2022-09-12T16:40:08.248Z,62.06
2022-09-12T16:42:37.413Z,62.03
2022-09-12T16:45:07.278Z,62.43
2022-09-12T16:47:35.047Z,62.86
2022-09-12T16:50:03.193Z,63.30
2022-09-12T16:52:33.113Z,63.84
2022-09-12T16:55:00.764Z,63.58
2022-09-12T16:57:30.993Z,62.91
2022-09-12T16:59:58.969Z,63.03
2022-09-12T17:02:27.105Z,63.14
2022-09-12T17:05:00.309Z,63.47
2022-09-12T17:07:31.446Z,64.28
2022-09-12T17:09:59.273Z,66.17
2022-09-12T17:12:26.779Z,65.42
2022-09-12T17:14:55.136Z,64.48
2022-09-12T17:17:23.022Z,65.26
2022-09-12T17:19:51.864Z,65.38
2022-09-12T17:22:19.496Z,64.81
2022-09-12T17:24:47.052Z,66.82
2022-09-12T17:27:15.219Z,66.69
2022-09-12T17:29:48.159Z,66.64
2022-09-12T17:32:17.728Z,66.89
2022-09-12T17:34:47.533Z,66.18
2022-09-12T17:37:22.225Z,66.61
2022-09-12T17:39:50.637Z,68.11
2022-09-12T17:42:19.099Z,67.92
2022-09-12T17:44:47.522Z,69.06
2022-09-12T17:47:15.509Z,67.62
2022-09-12T17:49:47.151Z,70.29
2022-09-12T17:52:17.990Z,72.11
2022-09-12T17:54:45.881Z,71.54
2022-09-12T17:57:13.873Z,70.52
2022-09-12T17:59:41.706Z,69.35
2022-09-12T18:02:13.897Z,68.91
2022-09-12T18:04:42.771Z,68.42
2022-09-12T18:07:11.527Z,69.18
2022-09-12T18:09:39.491Z,68.52
2022-09-12T18:12:09.554Z,70.01
2022-09-12T18:14:38.530Z,69.88
2022-09-12T18:17:09.080Z,69.36
2022-09-12T18:19:36.950Z,70.07
2022-09-12T18:22:06.845Z,69.60
2022-09-12T18:24:35.300Z,69.86
2022-09-12T18:27:04.678Z,70.39
2022-09-12T18:29:32.697Z,69.79
2022-09-12T18:32:00.217Z,69.59
2022-09-12T18:34:27.891Z,70.00
2022-09-12T18:36:55.944Z,69.00
2022-09-12T18:39:27.434Z,70.40
2022-09-12T18:41:55.427Z,69.63
2022-09-12T18:44:24.320Z,70.63
2022-09-12T18:46:52.049Z,69.96
2022-09-12T18:49:19.746Z,69.08
2022-09-12T18:51:47.576Z,68.61
2022-09-12T18:54:16.056Z,69.19
2022-09-12T18:56:46.029Z,68.13
2022-09-12T18:59:14.983Z,67.81
2022-09-12T19:01:43.482Z,67.80
2022-09-12T19:04:13.079Z,67.20
2022-09-12T19:06:43.138Z,67.85
2022-09-12T19:09:12.860Z,67.75
2022-09-12T19:11:50.030Z,68.07
2022-09-12T19:14:20.867Z,68.14
2022-09-12T19:16:48.306Z,68.51
2022-09-12T19:19:16.064Z,67.50
2022-09-12T19:21:44.053Z,67.67
2022-09-12T19:24:12.318Z,68.94
2022-09-12T19:26:40.865Z,67.40
2022-09-12T19:29:09.302Z,66.96
2022-09-12T19:31:37.034Z,66.91
2022-09-12T19:34:07.594Z,69.00
2022-09-12T19:36:51.431Z,67.82
2022-09-12T19:39:20.430Z,67.83
2022-09-12T19:41:50.787Z,67.06
2022-09-12T19:44:21.657Z,68.94
2022-09-12T19:46:49.556Z,70.17
2022-09-12T19:49:17.847Z,70.06
2022-09-12T19:51:45.794Z,70.46
2022-09-12T19:54:14.394Z,69.30
2022-09-12T19:56:42.287Z,69.74
2022-09-12T19:59:10.190Z,70.60
2022-09-12T20:01:38.571Z,69.89
2022-09-12T20:04:40.032Z,69.13
2022-09-12T20:10:31.431Z,70.04
2022-09-12T20:12:59.447Z,68.77
2022-09-12T20:15:28.442Z,68.98
2022-09-12T20:17:56.790Z,69.17
2022-09-12T20:20:26.648Z,69.46
2022-09-12T20:22:54.983Z,68.96
2022-09-12T20:25:22.966Z,68.88
2022-09-12T20:27:50.791Z,68.73
2022-09-12T20:30:18.611Z,69.27
2022-09-12T20:32:45.823Z,69.89
2022-09-12T20:35:13.387Z,70.09
2022-09-12T20:37:45.151Z,72.11
2022-09-12T20:40:13.402Z,71.02
2022-09-12T20:42:46.295Z,70.78
2022-09-12T20:45:15.203Z,70.94
2022-09-12T20:47:42.593Z,71.48
2022-09-12T20:50:10.058Z,71.38
2022-09-12T20:52:37.077Z,72.57
2022-09-12T20:55:04.339Z,73.54
2022-09-12T20:57:42.085Z,72.87
2022-09-12T21:00:11.443Z,73.37
2022-09-12T21:02:38.357Z,73.25
2022-09-12T21:05:06.430Z,73.51
2022-09-12T21:07:36.404Z,73.80
2022-09-12T21:10:03.558Z,74.25
2022-09-12T21:12:30.408Z,74.38
2022-09-12T21:14:57.258Z,74.17
2022-09-12T21:17:24.037Z,74.89
2022-09-12T21:19:50.820Z,75.00
2022-09-12T21:22:17.615Z,74.41
2022-09-12T21:24:44.486Z,74.82
2022-09-12T21:27:11.329Z,74.40
2022-09-12T21:29:38.652Z,75.10
2022-09-12T21:32:08.203Z,75.94
2022-09-12T21:34:36.847Z,75.37
2022-09-12T21:37:03.629Z,74.78
2022-09-12T21:39:32.869Z,75.66
2022-09-12T21:41:59.815Z,75.63
2022-09-12T21:44:26.835Z,75.94
2022-09-12T21:46:54.226Z,76.25
2022-09-12T21:49:21.729Z,75.73
2022-09-12T21:51:49.082Z,75.97
2022-09-12T21:54:16.921Z,76.23
2022-09-12T21:56:44.426Z,75.88
2022-09-12T21:59:12.063Z,75.64
2022-09-12T22:01:39.705Z,75.39
2022-09-12T22:04:10.325Z,75.90
2022-09-12T22:06:37.977Z,75.34
2022-09-12T22:09:07.134Z,75.30
2022-09-12T22:11:34.318Z,74.89
2022-09-12T22:14:01.388Z,74.59
2022-09-12T22:16:34.908Z,74.60
2022-09-12T22:19:06.297Z,74.91
2022-09-12T22:22:17.313Z,74.70
2022-09-12T22:24:44.762Z,75.97
2022-09-12T22:27:12.061Z,75.41
2022-09-12T22:29:39.896Z,75.11
2022-09-12T22:32:07.512Z,75.12
2022-09-12T22:34:35.566Z,75.76
2022-09-12T22:37:02.909Z,76.65
2022-09-12T22:39:30.430Z,76.14
2022-09-12T22:41:57.909Z,75.80
2022-09-12T22:44:25.298Z,75.62
2022-09-12T22:46:52.978Z,75.82
2022-09-12T22:49:20.604Z,76.17
2022-09-12T22:51:48.355Z,76.26
2022-09-12T22:54:16.204Z,77.11
2022-09-12T22:56:43.353Z,76.43
2022-09-12T22:59:11.061Z,76.56
2022-09-12T23:01:38.740Z,76.46
2022-09-12T23:04:06.026Z,76.62
2022-09-12T23:06:33.270Z,77.44
2022-09-12T23:09:00.557Z,77.51
2022-09-12T23:11:28.532Z,77.37
2022-09-12T23:13:55.984Z,77.32
2022-09-12T23:16:25.822Z,77.48
2022-09-12T23:18:53.132Z,77.45
2022-09-12T23:21:21.897Z,77.14
2022-09-12T23:23:49.585Z,76.83
2022-09-12T23:26:22.915Z,76.77
2022-09-12T23:28:55.624Z,76.50
2022-09-12T23:31:25.008Z,76.85
2022-09-12T23:33:56.299Z,76.63
2022-09-12T23:38:51.306Z,76.73
2022-09-12T23:41:19.220Z,74.92
2022-09-12T23:43:47.547Z,74.96
2022-09-12T23:46:15.891Z,74.57
2022-09-12T23:48:43.789Z,74.14
2022-09-12T23:51:11.737Z,74.15
2022-09-12T23:53:39.123Z,73.40
2022-09-12T23:56:06.903Z,73.09
2022-09-12T23:58:34.425Z,73.06
